sensor_id;sensor_type;location;lat;lon;timestamp;pressure;altitude;pressure_sealevel;temperature;humidity
55315;BME280;41619;42.816;23.226;2022-10-13T00:00:33;96299.81;;;7.20;79.22
55315;BME280;41619;42.816;23.226;2022-10-13T00:02:59;96304.00;;;7.18;78.96
55315;BME280;41619;42.816;23.226;2022-10-13T00:05:26;96300.16;;;7.19;78.81
55315;BME280;41619;42.816;23.226;2022-10-13T00:07:52;96299.50;;;7.22;79.92
55315;BME280;41619;42.816;23.226;2022-10-13T00:10:17;96298.84;;;7.25;79.43
55315;BME280;41619;42.816;23.226;2022-10-13T00:12:43;96295.97;;;7.30;79.48
55315;BME280;41619;42.816;23.226;2022-10-13T00:15:08;96289.69;;;7.38;79.54
55315;BME280;41619;42.816;23.226;2022-10-13T00:17:34;96280.56;;;7.43;79.30
55315;BME280;41619;42.816;23.226;2022-10-13T00:20:04;96283.44;;;7.46;78.83
55315;BME280;41619;42.816;23.226;2022-10-13T00:22:30;96274.47;;;7.46;78.50
55315;BME280;41619;42.816;23.226;2022-10-13T00:24:56;96279.94;;;7.46;78.54
55315;BME280;41619;42.816;23.226;2022-10-13T00:27:21;96273.34;;;7.47;78.31
55315;BME280;41619;42.816;23.226;2022-10-13T00:29:47;96273.69;;;7.45;79.08
55315;BME280;41619;42.816;23.226;2022-10-13T00:32:12;96271.75;;;7.46;78.33
55315;BME280;41619;42.816;23.226;2022-10-13T00:34:38;96273.34;;;7.47;78.27
55315;BME280;41619;42.816;23.226;2022-10-13T00:37:04;96264.06;;;7.48;78.68
55315;BME280;41619;42.816;23.226;2022-10-13T00:39:30;96262.59;;;7.50;78.96
55315;BME280;41619;42.816;23.226;2022-10-13T00:41:56;96263.06;;;7.52;78.58
55315;BME280;41619;42.816;23.226;2022-10-13T00:47:27;96273.31;;;7.55;78.14
55315;BME280;41619;42.816;23.226;2022-10-13T00:49:55;96261.16;;;7.53;78.59
55315;BME280;41619;42.816;23.226;2022-10-13T00:52:22;96257.63;;;7.52;78.60
55315;BME280;41619;42.816;23.226;2022-10-13T00:54:49;96253.63;;;7.50;79.16
55315;BME280;41619;42.816;23.226;2022-10-13T00:57:16;96254.63;;;7.45;78.99
55315;BME280;41619;42.816;23.226;2022-10-13T00:59:42;96255.56;;;7.41;78.96
55315;BME280;41619;42.816;23.226;2022-10-13T01:02:08;96255.75;;;7.36;79.48
55315;BME280;41619;42.816;23.226;2022-10-13T01:04:37;96243.91;;;7.32;79.45
55315;BME280;41619;42.816;23.226;2022-10-13T01:07:04;96253.53;;;7.29;79.30
55315;BME280;41619;42.816;23.226;2022-10-13T01:09:30;96260.44;;;7.26;79.56
55315;BME280;41619;42.816;23.226;2022-10-13T01:31:17;96247.66;;;7.01;79.06
55315;BME280;41619;42.816;23.226;2022-10-13T01:33:59;96251.34;;;6.96;79.29
55315;BME280;41619;42.816;23.226;2022-10-13T01:41:53;96257.44;;;6.85;79.33
55315;BME280;41619;42.816;23.226;2022-10-13T01:44:37;96264.47;;;6.86;79.02
55315;BME280;41619;42.816;23.226;2022-10-13T01:47:06;96255.84;;;6.84;78.62
55315;BME280;41619;42.816;23.226;2022-10-13T01:49:33;96263.19;;;6.83;79.38
55315;BME280;41619;42.816;23.226;2022-10-13T01:52:09;96271.22;;;6.80;79.22
55315;BME280;41619;42.816;23.226;2022-10-13T01:54:36;96264.50;;;6.77;79.40
55315;BME280;41619;42.816;23.226;2022-10-13T01:57:01;96267.53;;;6.76;78.75
55315;BME280;41619;42.816;23.226;2022-10-13T01:59:28;96261.44;;;6.79;78.79
55315;BME280;41619;42.816;23.226;2022-10-13T02:02:21;96266.88;;;6.87;79.05
55315;BME280;41619;42.816;23.226;2022-10-13T02:05:12;96260.97;;;6.94;78.83
55315;BME280;41619;42.816;23.226;2022-10-13T02:10:46;96263.50;;;6.99;78.41
55315;BME280;41619;42.816;23.226;2022-10-13T02:13:18;96262.06;;;7.02;78.87
55315;BME280;41619;42.816;23.226;2022-10-13T02:15:48;96261.41;;;7.05;78.67
55315;BME280;41619;42.816;23.226;2022-10-13T02:18:18;96257.75;;;7.09;78.63
55315;BME280;41619;42.816;23.226;2022-10-13T02:20:46;96252.13;;;7.14;78.97
55315;BME280;41619;42.816;23.226;2022-10-13T02:23:14;96253.41;;;7.17;78.54
55315;BME280;41619;42.816;23.226;2022-10-13T02:25:41;96256.75;;;7.22;78.72
55315;BME280;41619;42.816;23.226;2022-10-13T02:28:08;96242.19;;;7.27;79.13
55315;BME280;41619;42.816;23.226;2022-10-13T02:30:33;96236.22;;;7.34;79.02
55315;BME280;41619;42.816;23.226;2022-10-13T02:33:00;96237.63;;;7.40;78.78
55315;BME280;41619;42.816;23.226;2022-10-13T02:35:27;96236.69;;;7.44;78.98
55315;BME280;41619;42.816;23.226;2022-10-13T02:37:52;96236.03;;;7.47;79.02
55315;BME280;41619;42.816;23.226;2022-10-13T02:40:18;96226.06;;;7.51;78.79
55315;BME280;41619;42.816;23.226;2022-10-13T02:42:43;96228.47;;;7.53;78.59
55315;BME280;41619;42.816;23.226;2022-10-13T02:45:09;96220.44;;;7.56;78.60
55315;BME280;41619;42.816;23.226;2022-10-13T02:47:35;96227.94;;;7.59;78.57
55315;BME280;41619;42.816;23.226;2022-10-13T02:50:00;96220.75;;;7.64;78.86
55315;BME280;41619;42.816;23.226;2022-10-13T02:52:25;96220.41;;;7.65;79.24
55315;BME280;41619;42.816;23.226;2022-10-13T02:54:51;96213.50;;;7.68;78.36
55315;BME280;41619;42.816;23.226;2022-10-13T02:57:17;96217.03;;;7.68;79.05
55315;BME280;41619;42.816;23.226;2022-10-13T02:59:42;96216.69;;;7.70;79.17
55315;BME280;41619;42.816;23.226;2022-10-13T03:02:08;96215.22;;;7.72;78.91
55315;BME280;41619;42.816;23.226;2022-10-13T03:04:33;96212.97;;;7.74;78.79
55315;BME280;41619;42.816;23.226;2022-10-13T03:06:58;96216.16;;;7.76;79.42
55315;BME280;41619;42.816;23.226;2022-10-13T03:09:24;96217.28;;;7.75;79.53
55315;BME280;41619;42.816;23.226;2022-10-13T03:11:49;96215.69;;;7.74;79.03
55315;BME280;41619;42.816;23.226;2022-10-13T03:14:15;96212.84;;;7.71;79.40
55315;BME280;41619;42.816;23.226;2022-10-13T03:16:40;96214.75;;;7.70;79.40
55315;BME280;41619;42.816;23.226;2022-10-13T03:19:05;96211.56;;;7.68;78.99
55315;BME280;41619;42.816;23.226;2022-10-13T03:21:31;96224.72;;;7.66;79.18
55315;BME280;41619;42.816;23.226;2022-10-13T03:23:56;96212.22;;;7.65;79.29
55315;BME280;41619;42.816;23.226;2022-10-13T03:26:22;96219.75;;;7.68;79.43
55315;BME280;41619;42.816;23.226;2022-10-13T03:28:48;96222.16;;;7.70;79.02
55315;BME280;41619;42.816;23.226;2022-10-13T03:31:15;96225.34;;;7.72;79.30
55315;BME280;41619;42.816;23.226;2022-10-13T03:33:42;96225.34;;;7.72;78.86
55315;BME280;41619;42.816;23.226;2022-10-13T03:36:09;96227.72;;;7.73;79.19
55315;BME280;41619;42.816;23.226;2022-10-13T03:38:35;96236.38;;;7.75;78.82
55315;BME280;41619;42.816;23.226;2022-10-13T03:41:15;96239.09;;;7.75;78.89
55315;BME280;41619;42.816;23.226;2022-10-13T03:43:42;96237.03;;;7.72;78.91
55315;BME280;41619;42.816;23.226;2022-10-13T03:46:11;96236.22;;;7.72;78.64
55315;BME280;41619;42.816;23.226;2022-10-13T03:48:37;96234.16;;;7.69;78.75
55315;BME280;41619;42.816;23.226;2022-10-13T03:51:06;96232.09;;;7.66;78.64
55315;BME280;41619;42.816;23.226;2022-10-13T03:53:32;96230.84;;;7.63;78.79
55315;BME280;41619;42.816;23.226;2022-10-13T03:55:58;96231.78;;;7.58;78.19
55315;BME280;41619;42.816;23.226;2022-10-13T03:58:23;96232.78;;;7.54;78.19
55315;BME280;41619;42.816;23.226;2022-10-13T04:00:50;96233.09;;;7.52;78.66
55315;BME280;41619;42.816;23.226;2022-10-13T04:03:16;96229.44;;;7.48;78.36
55315;BME280;41619;42.816;23.226;2022-10-13T04:05:42;96221.13;;;7.45;78.85
55315;BME280;41619;42.816;23.226;2022-10-13T04:08:08;96228.50;;;7.44;79.29
55315;BME280;41619;42.816;23.226;2022-10-13T04:10:33;96225.28;;;7.42;78.85
55315;BME280;41619;42.816;23.226;2022-10-13T04:12:59;96221.75;;;7.42;78.78
55315;BME280;41619;42.816;23.226;2022-10-13T04:15:24;96219.84;;;7.42;78.74
55315;BME280;41619;42.816;23.226;2022-10-13T04:17:50;96217.44;;;7.41;79.40
55315;BME280;41619;42.816;23.226;2022-10-13T04:20:15;96221.28;;;7.40;79.13
55315;BME280;41619;42.816;23.226;2022-10-13T04:22:41;96218.25;;;7.41;79.56
55315;BME280;41619;42.816;23.226;2022-10-13T04:25:06;96222.56;;;7.42;79.88
55315;BME280;41619;42.816;23.226;2022-10-13T04:27:32;96227.72;;;7.44;79.42
55315;BME280;41619;42.816;23.226;2022-10-13T04:29:58;96226.09;;;7.43;79.89
55315;BME280;41619;42.816;23.226;2022-10-13T04:32:23;96221.13;;;7.45;79.71
55315;BME280;41619;42.816;23.226;2022-10-13T04:34:49;96221.13;;;7.45;79.81
55315;BME280;41619;42.816;23.226;2022-10-13T04:37:14;96223.19;;;7.48;79.84
55315;BME280;41619;42.816;23.226;2022-10-13T04:39:40;96220.16;;;7.49;79.77
55315;BME280;41619;42.816;23.226;2022-10-13T04:42:05;96220.28;;;7.53;79.54
55315;BME280;41619;42.816;23.226;2022-10-13T04:44:31;96215.63;;;7.53;79.70
55315;BME280;41619;42.816;23.226;2022-10-13T04:46:56;96222.81;;;7.58;80.11
55315;BME280;41619;42.816;23.226;2022-10-13T04:49:23;96220.56;;;7.60;79.71
55315;BME280;41619;42.816;23.226;2022-10-13T04:51:48;96226.47;;;7.62;80.32
55315;BME280;41619;42.816;23.226;2022-10-13T04:54:14;96228.91;;;7.64;79.64
55315;BME280;41619;42.816;23.226;2022-10-13T04:56:39;96230.84;;;7.63;80.14
55315;BME280;41619;42.816;23.226;2022-10-13T04:59:05;96231.31;;;7.65;79.81
55315;BME280;41619;42.816;23.226;2022-10-13T05:01:31;96241.06;;;7.66;80.30
55315;BME280;41619;42.816;23.226;2022-10-13T05:03:58;96238.03;;;7.68;80.45
55315;BME280;41619;42.816;23.226;2022-10-13T05:06:32;96235.44;;;7.71;80.21
55315;BME280;41619;42.816;23.226;2022-10-13T05:08:58;96224.69;;;7.75;80.52
55315;BME280;41619;42.816;23.226;2022-10-13T05:11:27;96237.31;;;7.79;80.38
55315;BME280;41619;42.816;23.226;2022-10-13T05:13:53;96244.34;;;7.80;80.52
55315;BME280;41619;42.816;23.226;2022-10-13T05:16:20;96237.00;;;7.81;80.09
55315;BME280;41619;42.816;23.226;2022-10-13T05:18:46;96237.81;;;7.81;80.72
55315;BME280;41619;42.816;23.226;2022-10-13T05:21:28;96241.00;;;7.83;80.77
55315;BME280;41619;42.816;23.226;2022-10-13T05:23:54;96237.94;;;7.85;80.81
55315;BME280;41619;42.816;23.226;2022-10-13T05:26:23;96245.47;;;7.88;80.74
55315;BME280;41619;42.816;23.226;2022-10-13T05:28:51;96240.81;;;7.88;81.03
55315;BME280;41619;42.816;23.226;2022-10-13T05:31:19;96247.53;;;7.91;80.72
55315;BME280;41619;42.816;23.226;2022-10-13T05:33:46;96256.97;;;7.94;80.38
55315;BME280;41619;42.816;23.226;2022-10-13T05:36:18;96257.91;;;7.98;80.86
55315;BME280;41619;42.816;23.226;2022-10-13T05:38:44;96251.81;;;8.01;81.14
55315;BME280;41619;42.816;23.226;2022-10-13T05:41:13;96253.88;;;8.04;81.21
55315;BME280;41619;42.816;23.226;2022-10-13T05:43:39;96259.94;;;8.09;80.87
55315;BME280;41619;42.816;23.226;2022-10-13T05:46:06;96258.94;;;8.14;80.81
55315;BME280;41619;42.816;23.226;2022-10-13T05:48:32;96269.66;;;8.19;81.04
55315;BME280;41619;42.816;23.226;2022-10-13T05:51:01;96275.59;;;8.21;80.90
55315;BME280;41619;42.816;23.226;2022-10-13T05:53:29;96274.59;;;8.26;81.30
55315;BME280;41619;42.816;23.226;2022-10-13T05:55:57;96273.59;;;8.30;81.22
55315;BME280;41619;42.816;23.226;2022-10-13T05:58:32;96277.28;;;8.34;81.01
55315;BME280;41619;42.816;23.226;2022-10-13T06:00:58;96271.50;;;8.36;80.96
55315;BME280;41619;42.816;23.226;2022-10-13T06:03:26;96269.25;;;8.38;81.06
55315;BME280;41619;42.816;23.226;2022-10-13T06:05:51;96268.94;;;8.39;81.13
55315;BME280;41619;42.816;23.226;2022-10-13T06:08:17;96270.66;;;8.44;81.04
55315;BME280;41619;42.816;23.226;2022-10-13T06:10:43;96269.78;;;8.52;81.13
55315;BME280;41619;42.816;23.226;2022-10-13T06:13:09;96263.28;;;8.65;81.29
55315;BME280;41619;42.816;23.226;2022-10-13T06:15:35;96272.00;;;8.79;81.03
55315;BME280;41619;42.816;23.226;2022-10-13T06:18:00;96277.78;;;8.99;80.59
55315;BME280;41619;42.816;23.226;2022-10-13T06:20:26;96275.00;;;9.20;80.70
55315;BME280;41619;42.816;23.226;2022-10-13T06:22:54;96287.03;;;9.39;80.39
55315;BME280;41619;42.816;23.226;2022-10-13T06:25:19;96277.41;;;9.54;80.03
55315;BME280;41619;42.816;23.226;2022-10-13T06:27:45;96277.09;;;9.68;79.87
55315;BME280;41619;42.816;23.226;2022-10-13T06:30:10;96274.25;;;9.89;79.68
55315;BME280;41619;42.816;23.226;2022-10-13T06:32:36;96278.94;;;10.13;79.51
55315;BME280;41619;42.816;23.226;2022-10-13T06:35:01;96280.09;;;10.36;78.86
55315;BME280;41619;42.816;23.226;2022-10-13T06:37:27;96275.66;;;10.44;78.47
55315;BME280;41619;42.816;23.226;2022-10-13T06:39:52;96272.09;;;10.55;78.26
55315;BME280;41619;42.816;23.226;2022-10-13T06:42:18;96264.16;;;10.78;78.24
55315;BME280;41619;42.816;23.226;2022-10-13T06:44:43;96266.47;;;11.04;77.41
55315;BME280;41619;42.816;23.226;2022-10-13T06:47:09;96267.47;;;11.40;76.96
55315;BME280;41619;42.816;23.226;2022-10-13T06:49:34;96270.63;;;11.86;76.51
55315;BME280;41619;42.816;23.226;2022-10-13T06:51:59;96268.69;;;12.18;75.22
55315;BME280;41619;42.816;23.226;2022-10-13T06:54:25;96269.53;;;12.53;74.85
55315;BME280;41619;42.816;23.226;2022-10-13T06:56:50;96264.91;;;13.31;73.88
55315;BME280;41619;42.816;23.226;2022-10-13T06:59:16;96269.47;;;13.85;72.02
55315;BME280;41619;42.816;23.226;2022-10-13T07:01:41;96268.09;;;14.44;70.92
55315;BME280;41619;42.816;23.226;2022-10-13T07:04:07;96263.00;;;14.72;69.96
55315;BME280;41619;42.816;23.226;2022-10-13T07:06:33;96260.31;;;15.73;69.16
55315;BME280;41619;42.816;23.226;2022-10-13T07:09:02;96256.78;;;17.44;65.20
55315;BME280;41619;42.816;23.226;2022-10-13T07:11:28;96255.78;;;18.66;61.96
55315;BME280;41619;42.816;23.226;2022-10-13T07:13:53;96255.59;;;19.34;60.00
55315;BME280;41619;42.816;23.226;2022-10-13T07:16:19;96256.78;;;19.33;59.12
55315;BME280;41619;42.816;23.226;2022-10-13T07:18:46;96249.03;;;19.83;57.79
55315;BME280;41619;42.816;23.226;2022-10-13T07:21:12;96256.16;;;20.43;57.03
55315;BME280;41619;42.816;23.226;2022-10-13T07:23:37;96255.69;;;21.65;54.81
55315;BME280;41619;42.816;23.226;2022-10-13T07:26:11;96246.88;;;22.98;51.55
55315;BME280;41619;42.816;23.226;2022-10-13T07:28:37;96249.34;;;24.11;49.54
55315;BME280;41619;42.816;23.226;2022-10-13T07:31:13;96241.06;;;25.05;47.54
55315;BME280;41619;42.816;23.226;2022-10-13T07:33:40;96242.91;;;25.95;45.46
55315;BME280;41619;42.816;23.226;2022-10-13T07:36:06;96241.25;;;26.23;44.09
55315;BME280;41619;42.816;23.226;2022-10-13T07:38:32;96236.81;;;26.73;43.08
55315;BME280;41619;42.816;23.226;2022-10-13T07:41:01;96244.84;;;27.09;40.85
55315;BME280;41619;42.816;23.226;2022-10-13T07:43:27;96243.38;;;26.57;41.16
55315;BME280;41619;42.816;23.226;2022-10-13T07:45:52;96239.91;;;26.40;41.28
55315;BME280;41619;42.816;23.226;2022-10-13T07:48:18;96231.06;;;26.89;40.96
55315;BME280;41619;42.816;23.226;2022-10-13T07:50:43;96236.56;;;27.27;39.51
55315;BME280;41619;42.816;23.226;2022-10-13T07:53:09;96230.56;;;27.16;39.12
55315;BME280;41619;42.816;23.226;2022-10-13T07:55:35;96225.13;;;27.00;38.60
55315;BME280;41619;42.816;23.226;2022-10-13T07:58:01;96219.88;;;27.11;38.09
55315;BME280;41619;42.816;23.226;2022-10-13T08:00:27;96221.50;;;27.56;37.56
55315;BME280;41619;42.816;23.226;2022-10-13T08:02:52;96219.91;;;28.39;36.46
55315;BME280;41619;42.816;23.226;2022-10-13T08:05:18;96210.84;;;29.11;34.97
55315;BME280;41619;42.816;23.226;2022-10-13T08:07:43;96208.66;;;29.61;33.54
55315;BME280;41619;42.816;23.226;2022-10-13T08:10:09;96211.00;;;29.44;33.87
55315;BME280;41619;42.816;23.226;2022-10-13T08:12:35;96210.06;;;29.02;33.46
55315;BME280;41619;42.816;23.226;2022-10-13T08:15:01;96217.94;;;28.48;34.11
55315;BME280;41619;42.816;23.226;2022-10-13T08:17:26;96205.75;;;28.70;33.80
55315;BME280;41619;42.816;23.226;2022-10-13T08:19:52;96201.16;;;29.21;33.79
55315;BME280;41619;42.816;23.226;2022-10-13T08:22:17;96184.69;;;29.38;32.45
55315;BME280;41619;42.816;23.226;2022-10-13T08:24:43;96190.19;;;29.23;32.57
55315;BME280;41619;42.816;23.226;2022-10-13T08:27:10;96191.88;;;28.93;32.24
55315;BME280;41619;42.816;23.226;2022-10-13T08:29:36;96186.41;;;28.90;32.37
55315;BME280;41619;42.816;23.226;2022-10-13T08:32:02;96185.13;;;28.63;32.36
55315;BME280;41619;42.816;23.226;2022-10-13T08:34:27;96193.47;;;27.96;32.88
55315;BME280;41619;42.816;23.226;2022-10-13T08:36:53;96191.69;;;27.36;33.00
55315;BME280;41619;42.816;23.226;2022-10-13T08:39:21;96185.22;;;26.92;33.10
55315;BME280;41619;42.816;23.226;2022-10-13T08:41:47;96176.56;;;26.65;33.38
55315;BME280;41619;42.816;23.226;2022-10-13T08:44:20;96180.94;;;26.66;33.45
55315;BME280;41619;42.816;23.226;2022-10-13T08:46:52;96171.66;;;26.43;32.56
55315;BME280;41619;42.816;23.226;2022-10-13T08:49:18;96171.31;;;24.94;33.89
55315;BME280;41619;42.816;23.226;2022-10-13T08:51:44;96161.69;;;23.85;35.16
55315;BME280;41619;42.816;23.226;2022-10-13T08:54:14;96167.72;;;23.08;36.06
55315;BME280;41619;42.816;23.226;2022-10-13T08:56:42;96164.78;;;22.52;37.05
55315;BME280;41619;42.816;23.226;2022-10-13T08:59:12;96153.97;;;22.07;38.03
55315;BME280;41619;42.816;23.226;2022-10-13T09:01:39;96161.34;;;21.67;38.80
55315;BME280;41619;42.816;23.226;2022-10-13T09:04:21;96159.00;;;21.01;39.52
55315;BME280;41619;42.816;23.226;2022-10-13T09:07:02;96153.31;;;20.40;40.84
55315;BME280;41619;42.816;23.226;2022-10-13T09:09:29;96150.44;;;20.09;41.12
55315;BME280;41619;42.816;23.226;2022-10-13T09:11:54;96149.78;;;19.91;41.49
55315;BME280;41619;42.816;23.226;2022-10-13T09:14:26;96146.00;;;19.63;42.12
55315;BME280;41619;42.816;23.226;2022-10-13T09:16:53;96141.22;;;19.67;42.26
55315;BME280;41619;42.816;23.226;2022-10-13T09:19:23;96134.34;;;19.83;42.15
55315;BME280;41619;42.816;23.226;2022-10-13T09:21:51;96129.06;;;19.99;42.13
55315;BME280;41619;42.816;23.226;2022-10-13T09:24:19;96137.25;;;20.17;42.59
55315;BME280;41619;42.816;23.226;2022-10-13T09:26:47;96125.06;;;20.82;42.89
55315;BME280;41619;42.816;23.226;2022-10-13T09:29:19;96127.28;;;22.33;41.59
55315;BME280;41619;42.816;23.226;2022-10-13T09:31:44;96119.56;;;24.08;39.32
55315;BME280;41619;42.816;23.226;2022-10-13T09:34:22;96112.41;;;25.65;36.97
55315;BME280;41619;42.816;23.226;2022-10-13T09:37:03;96120.63;;;26.58;35.47
55315;BME280;41619;42.816;23.226;2022-10-13T09:39:30;96116.75;;;27.42;34.15
55315;BME280;41619;42.816;23.226;2022-10-13T09:44:40;96115.09;;;28.25;32.69
55315;BME280;41619;42.816;23.226;2022-10-13T09:47:17;96114.69;;;28.54;31.96
55315;BME280;41619;42.816;23.226;2022-10-13T09:49:43;96109.06;;;29.00;31.37
55315;BME280;41619;42.816;23.226;2022-10-13T09:54:50;96112.72;;;29.70;30.66
55315;BME280;41619;42.816;23.226;2022-10-13T10:00:05;96099.03;;;28.44;29.77
55315;BME280;41619;42.816;23.226;2022-10-13T10:06:02;96094.53;;;26.48;31.52
55315;BME280;41619;42.816;23.226;2022-10-13T10:08:11;96088.66;;;25.44;32.69
55315;BME280;41619;42.816;23.226;2022-10-13T10:10:39;96080.00;;;24.84;33.76
55315;BME280;41619;42.816;23.226;2022-10-13T10:13:09;96063.81;;;24.63;34.20
55315;BME280;41619;42.816;23.226;2022-10-13T10:18:13;96065.13;;;25.80;33.39
55315;BME280;41619;42.816;23.226;2022-10-13T10:23:40;96065.66;;;28.15;30.79
55315;BME280;41619;42.816;23.226;2022-10-13T10:26:25;96068.22;;;28.59;29.63
55315;BME280;41619;42.816;23.226;2022-10-13T10:37:03;96047.88;;;25.30;30.88
55315;BME280;41619;42.816;23.226;2022-10-13T10:42:23;96037.41;;;23.21;33.08
55315;BME280;41619;42.816;23.226;2022-10-13T10:44:55;96032.72;;;22.98;33.62
55315;BME280;41619;42.816;23.226;2022-10-13T10:47:27;96026.22;;;22.85;34.09
55315;BME280;41619;42.816;23.226;2022-10-13T10:50:01;96018.16;;;22.51;34.33
55315;BME280;41619;42.816;23.226;2022-10-13T10:55:53;96017.94;;;22.22;35.03
55315;BME280;41619;42.816;23.226;2022-10-13T11:06:52;96003.50;;;21.60;35.70
55315;BME280;41619;42.816;23.226;2022-10-13T11:14:44;95982.06;;;21.57;36.39
55315;BME280;41619;42.816;23.226;2022-10-13T11:19:44;95977.56;;;21.63;36.71
55315;BME280;41619;42.816;23.226;2022-10-13T11:22:15;95982.94;;;21.74;36.53
55315;BME280;41619;42.816;23.226;2022-10-13T11:45:47;95944.84;;;21.67;36.30
55315;BME280;41619;42.816;23.226;2022-10-13T11:53:26;95927.81;;;21.15;36.62
55315;BME280;41619;42.816;23.226;2022-10-13T11:55:57;95926.19;;;21.17;36.74
55315;BME280;41619;42.816;23.226;2022-10-13T11:58:27;95933.47;;;21.11;36.60
55315;BME280;41619;42.816;23.226;2022-10-13T12:01:04;95926.53;;;20.96;36.81
55315;BME280;41619;42.816;23.226;2022-10-13T12:03:38;95927.31;;;20.97;36.58
55315;BME280;41619;42.816;23.226;2022-10-13T12:08:45;95930.13;;;20.70;37.03
55315;BME280;41619;42.816;23.226;2022-10-13T12:11:32;95924.88;;;20.75;36.66
55315;BME280;41619;42.816;23.226;2022-10-13T12:13:59;95916.91;;;20.77;36.63
55315;BME280;41619;42.816;23.226;2022-10-13T12:16:26;95919.63;;;20.81;36.21
55315;BME280;41619;42.816;23.226;2022-10-13T12:18:52;95919.16;;;20.86;36.21
55315;BME280;41619;42.816;23.226;2022-10-13T12:21:30;95923.09;;;20.89;35.79
55315;BME280;41619;42.816;23.226;2022-10-13T12:24:05;95923.88;;;20.89;35.59
55315;BME280;41619;42.816;23.226;2022-10-13T12:26:31;95909.69;;;20.80;35.73
55315;BME280;41619;42.816;23.226;2022-10-13T12:29:00;95910.53;;;20.77;36.41
55315;BME280;41619;42.816;23.226;2022-10-13T12:31:28;95915.59;;;20.85;36.19
55315;BME280;41619;42.816;23.226;2022-10-13T12:33:56;95913.13;;;20.91;36.19
55315;BME280;41619;42.816;23.226;2022-10-13T12:36:29;95912.16;;;21.01;36.26
55315;BME280;41619;42.816;23.226;2022-10-13T12:38:59;95910.22;;;20.98;36.05
55315;BME280;41619;42.816;23.226;2022-10-13T12:41:34;95903.56;;;20.92;36.66
55315;BME280;41619;42.816;23.226;2022-10-13T12:44:01;95896.91;;;21.09;36.24
55315;BME280;41619;42.816;23.226;2022-10-13T12:46:44;95895.00;;;21.30;36.21
55315;BME280;41619;42.816;23.226;2022-10-13T12:49:23;95891.31;;;21.36;35.98
55315;BME280;41619;42.816;23.226;2022-10-13T12:51:53;95890.59;;;21.32;35.99
55315;BME280;41619;42.816;23.226;2022-10-13T12:54:29;95888.72;;;21.26;36.17
55315;BME280;41619;42.816;23.226;2022-10-13T12:56:57;95894.44;;;21.15;36.48
55315;BME280;41619;42.816;23.226;2022-10-13T12:59:26;95891.78;;;21.08;36.50
55315;BME280;41619;42.816;23.226;2022-10-13T13:02:13;95889.94;;;20.98;36.62
55315;BME280;41619;42.816;23.226;2022-10-13T13:04:42;95882.13;;;20.66;36.96
55315;BME280;41619;42.816;23.226;2022-10-13T13:10:15;95875.88;;;20.27;37.90
55315;BME280;41619;42.816;23.226;2022-10-13T13:12:42;95874.94;;;20.38;37.45
55315;BME280;41619;42.816;23.226;2022-10-13T13:17:42;95874.50;;;20.70;37.11
55315;BME280;41619;42.816;23.226;2022-10-13T13:20:27;95872.50;;;20.70;37.14
55315;BME280;41619;42.816;23.226;2022-10-13T13:22:53;95865.94;;;20.57;36.68
55315;BME280;41619;42.816;23.226;2022-10-13T13:25:19;95868.78;;;20.53;36.62
55315;BME280;41619;42.816;23.226;2022-10-13T13:27:44;95871.34;;;20.41;36.44
55315;BME280;41619;42.816;23.226;2022-10-13T13:30:12;95860.00;;;20.28;36.28
55315;BME280;41619;42.816;23.226;2022-10-13T13:32:37;95864.13;;;20.16;36.71
55315;BME280;41619;42.816;23.226;2022-10-13T13:35:04;95863.03;;;20.10;36.68
55315;BME280;41619;42.816;23.226;2022-10-13T13:37:53;95870.16;;;20.11;36.70
55315;BME280;41619;42.816;23.226;2022-10-13T13:40:20;95873.66;;;20.15;36.96
55315;BME280;41619;42.816;23.226;2022-10-13T13:42:46;95873.72;;;20.12;36.83
55315;BME280;41619;42.816;23.226;2022-10-13T13:45:16;95869.81;;;20.06;37.41
55315;BME280;41619;42.816;23.226;2022-10-13T13:47:42;95865.50;;;20.01;37.51
55315;BME280;41619;42.816;23.226;2022-10-13T13:50:18;95869.59;;;19.93;37.54
55315;BME280;41619;42.816;23.226;2022-10-13T13:52:44;95860.97;;;19.84;37.51
55315;BME280;41619;42.816;23.226;2022-10-13T13:55:10;95863.41;;;19.78;37.73
55315;BME280;41619;42.816;23.226;2022-10-13T13:57:35;95860.31;;;19.73;38.01
55315;BME280;41619;42.816;23.226;2022-10-13T14:00:00;95854.00;;;19.69;37.99
55315;BME280;41619;42.816;23.226;2022-10-13T14:02:26;95856.44;;;19.63;38.52
55315;BME280;41619;42.816;23.226;2022-10-13T14:04:51;95859.31;;;19.56;38.43
55315;BME280;41619;42.816;23.226;2022-10-13T14:07:17;95852.22;;;19.48;38.50
55315;BME280;41619;42.816;23.226;2022-10-13T14:09:44;95857.06;;;19.40;38.88
55315;BME280;41619;42.816;23.226;2022-10-13T14:12:09;95850.00;;;19.32;39.42
55315;BME280;41619;42.816;23.226;2022-10-13T14:14:36;95851.28;;;19.24;40.00
55315;BME280;41619;42.816;23.226;2022-10-13T14:17:01;95851.38;;;19.17;39.96
55315;BME280;41619;42.816;23.226;2022-10-13T14:19:28;95851.84;;;19.08;40.37
55315;BME280;41619;42.816;23.226;2022-10-13T14:21:54;95853.50;;;19.02;40.39
55315;BME280;41619;42.816;23.226;2022-10-13T14:24:19;95854.31;;;18.95;40.86
55315;BME280;41619;42.816;23.226;2022-10-13T14:26:45;95843.72;;;18.87;41.03
55315;BME280;41619;42.816;23.226;2022-10-13T14:29:10;95841.81;;;18.76;41.24
55315;BME280;41619;42.816;23.226;2022-10-13T14:31:36;95848.25;;;18.66;42.01
55315;BME280;41619;42.816;23.226;2022-10-13T14:34:01;95842.34;;;18.54;42.50
55315;BME280;41619;42.816;23.226;2022-10-13T14:36:26;95851.56;;;18.43;42.96
55315;BME280;41619;42.816;23.226;2022-10-13T14:38:52;95844.09;;;18.33;43.61
55315;BME280;41619;42.816;23.226;2022-10-13T14:41:19;95841.78;;;18.25;43.89
55315;BME280;41619;42.816;23.226;2022-10-13T14:43:45;95847.75;;;18.16;44.27
55315;BME280;41619;42.816;23.226;2022-10-13T14:46:11;95853.75;;;18.07;44.69
55315;BME280;41619;42.816;23.226;2022-10-13T14:48:36;95858.53;;;18.00;45.12
55315;BME280;41619;42.816;23.226;2022-10-13T14:51:06;95856.19;;;17.91;45.58